sensor_id;sensor_type;location;lat;lon;timestamp;P1;durP1;ratioP1;P2;durP2;ratioP2
9508;SDS011;4792;50.088;8.122;2023-04-24T00:00:28;3.00;;;2.10;;
9508;SDS011;4792;50.088;8.122;2023-04-24T00:02:57;4.57;;;2.00;;
9508;SDS011;4792;50.088;8.122;2023-04-24T00:05:26;3.43;;;2.20;;
9508;SDS011;4792;50.088;8.122;2023-04-24T00:07:53;3.27;;;2.10;;
9508;SDS011;4792;50.088;8.122;2023-04-24T00:10:21;3.07;;;2.27;;
9508;SDS011;4792;50.088;8.122;2023-04-24T00:12:49;2.80;;;2.37;;
9508;SDS011;4792;50.088;8.122;2023-04-24T00:15:19;4.03;;;2.40;;
9508;SDS011;4792;50.088;8.122;2023-04-24T00:17:47;2.87;;;2.17;;
9508;SDS011;4792;50.088;8.122;2023-04-24T00:20:15;2.80;;;2.50;;
9508;SDS011;4792;50.088;8.122;2023-04-24T00:22:43;3.87;;;2.50;;
9508;SDS011;4792;50.088;8.122;2023-04-24T00:25:11;3.67;;;2.40;;
9508;SDS011;4792;50.088;8.122;2023-04-24T00:27:39;3.00;;;2.50;;
9508;SDS011;4792;50.088;8.122;2023-04-24T00:30:07;2.57;;;2.37;;
9508;SDS011;4792;50.088;8.122;2023-04-24T00:32:37;5.33;;;2.20;;
9508;SDS011;4792;50.088;8.122;2023-04-24T00:35:05;4.03;;;2.30;;
9508;SDS011;4792;50.088;8.122;2023-04-24T00:37:34;2.93;;;2.50;;
9508;SDS011;4792;50.088;8.122;2023-04-24T00:40:02;6.43;;;2.30;;
9508;SDS011;4792;50.088;8.122;2023-04-24T00:42:30;2.73;;;2.40;;
9508;SDS011;4792;50.088;8.122;2023-04-24T00:44:58;5.13;;;2.40;;
9508;SDS011;4792;50.088;8.122;2023-04-24T00:47:26;5.33;;;2.57;;
9508;SDS011;4792;50.088;8.122;2023-04-24T00:49:55;4.80;;;2.70;;
9508;SDS011;4792;50.088;8.122;2023-04-24T00:52:23;3.90;;;2.40;;
9508;SDS011;4792;50.088;8.122;2023-04-24T00:54:51;2.70;;;2.20;;
9508;SDS011;4792;50.088;8.122;2023-04-24T00:57:19;3.53;;;2.03;;
9508;SDS011;4792;50.088;8.122;2023-04-24T00:59:48;4.07;;;2.33;;
9508;SDS011;4792;50.088;8.122;2023-04-24T01:02:16;8.57;;;2.93;;
9508;SDS011;4792;50.088;8.122;2023-04-24T01:04:43;4.57;;;2.70;;
9508;SDS011;4792;50.088;8.122;2023-04-24T01:07:13;6.07;;;2.87;;
9508;SDS011;4792;50.088;8.122;2023-04-24T01:09:41;5.10;;;2.40;;
9508;SDS011;4792;50.088;8.122;2023-04-24T01:12:09;5.13;;;2.23;;
9508;SDS011;4792;50.088;8.122;2023-04-24T01:14:37;4.13;;;2.00;;
9508;SDS011;4792;50.088;8.122;2023-04-24T01:17:05;3.13;;;2.00;;
9508;SDS011;4792;50.088;8.122;2023-04-24T01:19:33;2.43;;;2.00;;
9508;SDS011;4792;50.088;8.122;2023-04-24T01:22:01;3.07;;;2.33;;
9508;SDS011;4792;50.088;8.122;2023-04-24T01:24:31;2.53;;;2.10;;
9508;SDS011;4792;50.088;8.122;2023-04-24T01:26:59;3.63;;;2.10;;
9508;SDS011;4792;50.088;8.122;2023-04-24T01:29:27;2.40;;;2.20;;
9508;SDS011;4792;50.088;8.122;2023-04-24T01:31:55;2.20;;;2.00;;
9508;SDS011;4792;50.088;8.122;2023-04-24T01:34:24;3.10;;;2.20;;
9508;SDS011;4792;50.088;8.122;2023-04-24T01:36:52;3.27;;;2.33;;
9508;SDS011;4792;50.088;8.122;2023-04-24T01:39:20;2.90;;;2.60;;
9508;SDS011;4792;50.088;8.122;2023-04-24T01:41:50;5.27;;;2.37;;
9508;SDS011;4792;50.088;8.122;2023-04-24T01:44:18;3.43;;;2.27;;
9508;SDS011;4792;50.088;8.122;2023-04-24T01:46:46;7.63;;;3.00;;
9508;SDS011;4792;50.088;8.122;2023-04-24T01:49:14;3.67;;;2.20;;
9508;SDS011;4792;50.088;8.122;2023-04-24T01:51:42;4.93;;;2.53;;
9508;SDS011;4792;50.088;8.122;2023-04-24T01:54:11;4.17;;;2.17;;
9508;SDS011;4792;50.088;8.122;2023-04-24T01:56:39;4.40;;;2.20;;
9508;SDS011;4792;50.088;8.122;2023-04-24T01:59:10;3.30;;;2.20;;
9508;SDS011;4792;50.088;8.122;2023-04-24T02:01:38;1.90;;;1.73;;
9508;SDS011;4792;50.088;8.122;2023-04-24T02:04:07;3.17;;;1.50;;
9508;SDS011;4792;50.088;8.122;2023-04-24T02:06:35;5.13;;;1.73;;
9508;SDS011;4792;50.088;8.122;2023-04-24T02:09:03;4.10;;;1.83;;
9508;SDS011;4792;50.088;8.122;2023-04-24T02:11:31;1.70;;;1.60;;
9508;SDS011;4792;50.088;8.122;2023-04-24T02:13:59;1.53;;;1.43;;
9508;SDS011;4792;50.088;8.122;2023-04-24T02:16:29;3.87;;;1.30;;
9508;SDS011;4792;50.088;8.122;2023-04-24T02:18:58;1.60;;;1.50;;
9508;SDS011;4792;50.088;8.122;2023-04-24T02:21:26;3.00;;;1.70;;
9508;SDS011;4792;50.088;8.122;2023-04-24T02:23:54;2.83;;;1.40;;
9508;SDS011;4792;50.088;8.122;2023-04-24T02:26:22;4.90;;;1.80;;
9508;SDS011;4792;50.088;8.122;2023-04-24T02:28:51;2.00;;;1.80;;
9508;SDS011;4792;50.088;8.122;2023-04-24T02:31:18;1.80;;;1.70;;
9508;SDS011;4792;50.088;8.122;2023-04-24T02:33:48;2.03;;;1.60;;
9508;SDS011;4792;50.088;8.122;2023-04-24T02:36:16;2.03;;;1.40;;
9508;SDS011;4792;50.088;8.122;2023-04-24T02:38:44;1.80;;;1.70;;
9508;SDS011;4792;50.088;8.122;2023-04-24T02:41:12;3.30;;;1.60;;
9508;SDS011;4792;50.088;8.122;2023-04-24T02:43:40;1.90;;;1.70;;
9508;SDS011;4792;50.088;8.122;2023-04-24T02:46:07;2.33;;;1.70;;
9508;SDS011;4792;50.088;8.122;2023-04-24T02:48:35;2.17;;;1.57;;
9508;SDS011;4792;50.088;8.122;2023-04-24T02:51:04;1.97;;;1.60;;
9508;SDS011;4792;50.088;8.122;2023-04-24T02:53:33;1.97;;;1.60;;
9508;SDS011;4792;50.088;8.122;2023-04-24T02:56:00;1.60;;;1.50;;
9508;SDS011;4792;50.088;8.122;2023-04-24T02:58:28;2.43;;;1.83;;
9508;SDS011;4792;50.088;8.122;2023-04-24T03:00:56;4.17;;;1.80;;
9508;SDS011;4792;50.088;8.122;2023-04-24T03:03:24;2.20;;;1.80;;
9508;SDS011;4792;50.088;8.122;2023-04-24T03:05:52;1.97;;;1.47;;
9508;SDS011;4792;50.088;8.122;2023-04-24T03:08:23;2.27;;;1.77;;
9508;SDS011;4792;50.088;8.122;2023-04-24T03:10:50;2.20;;;2.00;;
9508;SDS011;4792;50.088;8.122;2023-04-24T03:13:18;2.47;;;2.17;;
9508;SDS011;4792;50.088;8.122;2023-04-24T03:15:46;2.97;;;1.87;;
9508;SDS011;4792;50.088;8.122;2023-04-24T03:18:14;2.07;;;1.70;;
9508;SDS011;4792;50.088;8.122;2023-04-24T03:20:42;2.30;;;1.80;;
9508;SDS011;4792;50.088;8.122;2023-04-24T03:23:10;4.00;;;1.80;;
9508;SDS011;4792;50.088;8.122;2023-04-24T03:25:39;1.80;;;1.70;;
9508;SDS011;4792;50.088;8.122;2023-04-24T03:28:07;2.83;;;1.93;;
9508;SDS011;4792;50.088;8.122;2023-04-24T03:30:34;2.50;;;2.30;;
9508;SDS011;4792;50.088;8.122;2023-04-24T03:33:02;4.43;;;2.20;;
9508;SDS011;4792;50.088;8.122;2023-04-24T03:35:30;3.27;;;1.93;;
9508;SDS011;4792;50.088;8.122;2023-04-24T03:37:58;2.30;;;2.10;;
9508;SDS011;4792;50.088;8.122;2023-04-24T03:40:26;2.83;;;1.63;;
9508;SDS011;4792;50.088;8.122;2023-04-24T03:42:57;2.10;;;1.90;;
9508;SDS011;4792;50.088;8.122;2023-04-24T03:45:24;2.20;;;2.00;;
9508;SDS011;4792;50.088;8.122;2023-04-24T03:47:52;4.40;;;2.27;;
9508;SDS011;4792;50.088;8.122;2023-04-24T03:50:20;2.90;;;2.50;;
9508;SDS011;4792;50.088;8.122;2023-04-24T03:52:48;2.50;;;2.10;;
9508;SDS011;4792;50.088;8.122;2023-04-24T03:55:16;2.17;;;1.97;;
9508;SDS011;4792;50.088;8.122;2023-04-24T03:57:44;2.83;;;2.53;;
9508;SDS011;4792;50.088;8.122;2023-04-24T04:00:13;5.40;;;2.33;;
9508;SDS011;4792;50.088;8.122;2023-04-24T04:02:41;2.60;;;2.20;;
9508;SDS011;4792;50.088;8.122;2023-04-24T04:05:09;4.73;;;2.20;;
9508;SDS011;4792;50.088;8.122;2023-04-24T04:07:37;3.70;;;2.47;;
9508;SDS011;4792;50.088;8.122;2023-04-24T04:10:06;3.10;;;2.20;;
9508;SDS011;4792;50.088;8.122;2023-04-24T04:12:34;3.73;;;2.27;;
9508;SDS011;4792;50.088;8.122;2023-04-24T04:15:02;3.03;;;2.27;;
9508;SDS011;4792;50.088;8.122;2023-04-24T04:17:32;3.07;;;2.40;;
9508;SDS011;4792;50.088;8.122;2023-04-24T04:20:00;3.50;;;2.30;;
9508;SDS011;4792;50.088;8.122;2023-04-24T04:22:31;3.53;;;2.20;;
9508;SDS011;4792;50.088;8.122;2023-04-24T04:24:59;4.07;;;2.30;;
9508;SDS011;4792;50.088;8.122;2023-04-24T04:27:27;2.67;;;2.40;;
9508;SDS011;4792;50.088;8.122;2023-04-24T04:29:58;2.77;;;2.43;;
9508;SDS011;4792;50.088;8.122;2023-04-24T04:32:32;3.30;;;2.43;;
9508;SDS011;4792;50.088;8.122;2023-04-24T04:35:00;3.73;;;2.50;;
9508;SDS011;4792;50.088;8.122;2023-04-24T04:37:29;3.07;;;2.77;;
9508;SDS011;4792;50.088;8.122;2023-04-24T04:39:57;3.20;;;2.60;;
9508;SDS011;4792;50.088;8.122;2023-04-24T04:42:25;2.40;;;2.20;;
9508;SDS011;4792;50.088;8.122;2023-04-24T04:44:54;3.33;;;2.87;;
9508;SDS011;4792;50.088;8.122;2023-04-24T04:47:23;4.70;;;2.97;;
9508;SDS011;4792;50.088;8.122;2023-04-24T04:49:53;5.73;;;2.57;;
9508;SDS011;4792;50.088;8.122;2023-04-24T04:52:21;4.23;;;2.87;;
9508;SDS011;4792;50.088;8.122;2023-04-24T04:54:51;4.13;;;3.00;;
9508;SDS011;4792;50.088;8.122;2023-04-24T04:57:19;3.37;;;2.93;;
9508;SDS011;4792;50.088;8.122;2023-04-24T04:59:47;5.77;;;2.90;;
9508;SDS011;4792;50.088;8.122;2023-04-24T05:02:14;5.83;;;2.73;;
9508;SDS011;4792;50.088;8.122;2023-04-24T05:04:42;3.40;;;2.70;;
9508;SDS011;4792;50.088;8.122;2023-04-24T05:07:13;4.33;;;3.07;;
9508;SDS011;4792;50.088;8.122;2023-04-24T05:09:41;3.80;;;3.17;;
9508;SDS011;4792;50.088;8.122;2023-04-24T05:12:09;6.80;;;3.50;;
9508;SDS011;4792;50.088;8.122;2023-04-24T05:14:37;5.47;;;3.30;;
9508;SDS011;4792;50.088;8.122;2023-04-24T05:17:04;4.90;;;3.90;;
9508;SDS011;4792;50.088;8.122;2023-04-24T05:19:32;4.80;;;3.60;;
9508;SDS011;4792;50.088;8.122;2023-04-24T05:22:02;6.27;;;4.43;;
9508;SDS011;4792;50.088;8.122;2023-04-24T05:24:34;5.50;;;3.27;;
9508;SDS011;4792;50.088;8.122;2023-04-24T05:27:02;5.77;;;4.47;;
9508;SDS011;4792;50.088;8.122;2023-04-24T05:29:30;5.30;;;3.97;;
9508;SDS011;4792;50.088;8.122;2023-04-24T05:31:59;5.27;;;3.27;;
9508;SDS011;4792;50.088;8.122;2023-04-24T05:34:27;4.03;;;3.30;;
9508;SDS011;4792;50.088;8.122;2023-04-24T05:36:55;5.50;;;3.87;;
9508;SDS011;4792;50.088;8.122;2023-04-24T05:39:23;4.13;;;3.10;;
9508;SDS011;4792;50.088;8.122;2023-04-24T05:41:53;5.43;;;3.80;;
9508;SDS011;4792;50.088;8.122;2023-04-24T05:44:21;6.57;;;4.80;;
9508;SDS011;4792;50.088;8.122;2023-04-24T05:46:49;5.87;;;4.90;;
9508;SDS011;4792;50.088;8.122;2023-04-24T05:49:17;4.43;;;3.83;;
9508;SDS011;4792;50.088;8.122;2023-04-24T05:51:44;9.83;;;5.47;;
9508;SDS011;4792;50.088;8.122;2023-04-24T05:54:12;5.13;;;4.17;;
9508;SDS011;4792;50.088;8.122;2023-04-24T05:56:40;5.53;;;4.13;;
9508;SDS011;4792;50.088;8.122;2023-04-24T05:59:09;6.20;;;4.37;;
9508;SDS011;4792;50.088;8.122;2023-04-24T06:01:37;6.43;;;4.37;;
9508;SDS011;4792;50.088;8.122;2023-04-24T06:04:05;4.93;;;4.07;;
9508;SDS011;4792;50.088;8.122;2023-04-24T06:06:34;4.97;;;4.20;;
9508;SDS011;4792;50.088;8.122;2023-04-24T06:09:02;5.50;;;4.63;;
9508;SDS011;4792;50.088;8.122;2023-04-24T06:11:31;6.17;;;4.60;;
9508;SDS011;4792;50.088;8.122;2023-04-24T06:13:59;6.73;;;4.07;;
9508;SDS011;4792;50.088;8.122;2023-04-24T06:16:28;5.67;;;4.13;;
9508;SDS011;4792;50.088;8.122;2023-04-24T06:18:57;4.73;;;4.10;;
9508;SDS011;4792;50.088;8.122;2023-04-24T06:21:25;4.70;;;3.97;;
9508;SDS011;4792;50.088;8.122;2023-04-24T06:23:53;4.70;;;3.70;;
9508;SDS011;4792;50.088;8.122;2023-04-24T06:26:22;5.07;;;4.23;;
9508;SDS011;4792;50.088;8.122;2023-04-24T06:28:51;4.33;;;3.87;;
9508;SDS011;4792;50.088;8.122;2023-04-24T06:31:20;4.37;;;3.70;;
9508;SDS011;4792;50.088;8.122;2023-04-24T06:33:49;4.10;;;3.63;;
9508;SDS011;4792;50.088;8.122;2023-04-24T06:36:17;4.87;;;4.10;;
9508;SDS011;4792;50.088;8.122;2023-04-24T06:38:45;4.27;;;3.33;;
9508;SDS011;4792;50.088;8.122;2023-04-24T06:41:12;5.40;;;3.50;;
9508;SDS011;4792;50.088;8.122;2023-04-24T06:43:40;5.73;;;3.50;;
9508;SDS011;4792;50.088;8.122;2023-04-24T06:46:08;4.80;;;4.37;;
9508;SDS011;4792;50.088;8.122;2023-04-24T06:48:36;4.23;;;3.80;;
9508;SDS011;4792;50.088;8.122;2023-04-24T06:51:05;3.93;;;3.53;;
9508;SDS011;4792;50.088;8.122;2023-04-24T06:53:33;6.20;;;3.30;;
9508;SDS011;4792;50.088;8.122;2023-04-24T06:56:01;3.00;;;2.60;;
9508;SDS011;4792;50.088;8.122;2023-04-24T06:58:30;3.73;;;2.93;;
9508;SDS011;4792;50.088;8.122;2023-04-24T07:00:58;4.43;;;3.20;;
9508;SDS011;4792;50.088;8.122;2023-04-24T07:03:26;3.70;;;2.97;;
9508;SDS011;4792;50.088;8.122;2023-04-24T07:05:54;3.40;;;3.10;;
9508;SDS011;4792;50.088;8.122;2023-04-24T07:08:23;4.17;;;3.00;;
9508;SDS011;4792;50.088;8.122;2023-04-24T07:10:51;4.33;;;3.10;;
9508;SDS011;4792;50.088;8.122;2023-04-24T07:13:19;4.60;;;3.23;;
9508;SDS011;4792;50.088;8.122;2023-04-24T07:15:47;6.47;;;3.00;;
9508;SDS011;4792;50.088;8.122;2023-04-24T07:18:17;3.10;;;2.73;;
9508;SDS011;4792;50.088;8.122;2023-04-24T07:20:44;3.27;;;2.97;;
9508;SDS011;4792;50.088;8.122;2023-04-24T07:23:12;3.87;;;2.80;;
9508;SDS011;4792;50.088;8.122;2023-04-24T07:25:41;3.17;;;2.87;;
9508;SDS011;4792;50.088;8.122;2023-04-24T07:28:09;6.53;;;3.30;;
9508;SDS011;4792;50.088;8.122;2023-04-24T07:30:37;3.60;;;2.93;;
9508;SDS011;4792;50.088;8.122;2023-04-24T07:33:05;6.13;;;2.93;;
9508;SDS011;4792;50.088;8.122;2023-04-24T07:35:33;2.80;;;2.60;;
9508;SDS011;4792;50.088;8.122;2023-04-24T07:38:01;3.40;;;3.10;;
9508;SDS011;4792;50.088;8.122;2023-04-24T07:40:29;3.80;;;2.83;;
9508;SDS011;4792;50.088;8.122;2023-04-24T07:42:58;4.10;;;3.00;;
9508;SDS011;4792;50.088;8.122;2023-04-24T07:45:26;4.37;;;3.13;;
9508;SDS011;4792;50.088;8.122;2023-04-24T07:47:54;3.20;;;2.90;;
9508;SDS011;4792;50.088;8.122;2023-04-24T07:50:22;8.00;;;5.27;;
9508;SDS011;4792;50.088;8.122;2023-04-24T07:52:50;3.50;;;2.97;;
9508;SDS011;4792;50.088;8.122;2023-04-24T07:55:18;4.17;;;3.13;;
9508;SDS011;4792;50.088;8.122;2023-04-24T07:57:50;3.97;;;2.90;;
9508;SDS011;4792;50.088;8.122;2023-04-24T08:00:20;3.53;;;3.10;;
9508;SDS011;4792;50.088;8.122;2023-04-24T08:02:48;5.23;;;3.37;;
9508;SDS011;4792;50.088;8.122;2023-04-24T08:05:16;5.87;;;3.27;;
9508;SDS011;4792;50.088;8.122;2023-04-24T08:07:44;4.87;;;3.40;;
9508;SDS011;4792;50.088;8.122;2023-04-24T08:10:15;4.57;;;3.20;;
9508;SDS011;4792;50.088;8.122;2023-04-24T08:12:42;3.77;;;3.37;;
9508;SDS011;4792;50.088;8.122;2023-04-24T08:15:10;3.50;;;3.20;;
9508;SDS011;4792;50.088;8.122;2023-04-24T08:17:39;4.17;;;3.37;;
9508;SDS011;4792;50.088;8.122;2023-04-24T08:20:08;3.37;;;2.70;;
9508;SDS011;4792;50.088;8.122;2023-04-24T08:22:48;2.83;;;2.40;;
9508;SDS011;4792;50.088;8.122;2023-04-24T08:25:16;4.27;;;2.90;;
9508;SDS011;4792;50.088;8.122;2023-04-24T08:27:45;4.80;;;2.60;;
9508;SDS011;4792;50.088;8.122;2023-04-24T08:30:13;3.97;;;2.90;;
9508;SDS011;4792;50.088;8.122;2023-04-24T08:32:42;3.20;;;2.80;;
9508;SDS011;4792;50.088;8.122;2023-04-24T08:35:10;3.10;;;2.80;;
9508;SDS011;4792;50.088;8.122;2023-04-24T08:37:38;4.60;;;2.87;;
9508;SDS011;4792;50.088;8.122;2023-04-24T08:40:10;2.70;;;2.30;;
9508;SDS011;4792;50.088;8.122;2023-04-24T08:42:41;3.40;;;2.67;;
9508;SDS011;4792;50.088;8.122;2023-04-24T08:45:09;2.67;;;2.47;;
9508;SDS011;4792;50.088;8.122;2023-04-24T08:47:38;2.90;;;2.53;;
9508;SDS011;4792;50.088;8.122;2023-04-24T08:50:09;3.13;;;2.20;;
9508;SDS011;4792;50.088;8.122;2023-04-24T08:52:38;3.87;;;2.80;;
9508;SDS011;4792;50.088;8.122;2023-04-24T08:55:07;2.90;;;2.30;;
9508;SDS011;4792;50.088;8.122;2023-04-24T08:57:35;3.47;;;2.47;;
9508;SDS011;4792;50.088;8.122;2023-04-24T09:00:06;3.50;;;2.30;;
9508;SDS011;4792;50.088;8.122;2023-04-24T09:02:38;3.47;;;2.20;;
9508;SDS011;4792;50.088;8.122;2023-04-24T09:05:10;4.23;;;2.20;;
9508;SDS011;4792;50.088;8.122;2023-04-24T09:07:38;2.57;;;2.07;;
9508;SDS011;4792;50.088;8.122;2023-04-24T09:10:07;2.53;;;2.20;;
9508;SDS011;4792;50.088;8.122;2023-04-24T09:12:35;2.20;;;2.00;;
9508;SDS011;4792;50.088;8.122;2023-04-24T09:15:03;1.80;;;1.70;;
9508;SDS011;4792;50.088;8.122;2023-04-24T09:17:32;2.10;;;1.90;;
9508;SDS011;4792;50.088;8.122;2023-04-24T09:20:01;5.03;;;2.07;;
9508;SDS011;4792;50.088;8.122;2023-04-24T09:22:31;2.27;;;2.00;;
9508;SDS011;4792;50.088;8.122;2023-04-24T09:25:00;2.17;;;1.97;;
9508;SDS011;4792;50.088;8.122;2023-04-24T09:27:30;2.23;;;1.90;;
9508;SDS011;4792;50.088;8.122;2023-04-24T09:29:58;4.57;;;1.90;;
9508;SDS011;4792;50.088;8.122;2023-04-24T09:32:26;1.97;;;1.87;;
9508;SDS011;4792;50.088;8.122;2023-04-24T09:35:06;5.50;;;1.90;;
9508;SDS011;4792;50.088;8.122;2023-04-24T09:37:37;2.93;;;1.70;;
9508;SDS011;4792;50.088;8.122;2023-04-24T09:40:09;3.57;;;1.80;;
9508;SDS011;4792;50.088;8.122;2023-04-24T09:42:38;2.70;;;1.90;;
9508;SDS011;4792;50.088;8.122;2023-04-24T09:45:09;2.90;;;2.03;;
9508;SDS011;4792;50.088;8.122;2023-04-24T09:47:41;2.93;;;1.70;;
9508;SDS011;4792;50.088;8.122;2023-04-24T09:50:10;4.00;;;1.53;;
9508;SDS011;4792;50.088;8.122;2023-04-24T09:52:41;2.13;;;1.90;;
9508;SDS011;4792;50.088;8.122;2023-04-24T09:55:10;3.10;;;2.03;;
9508;SDS011;4792;50.088;8.122;2023-04-24T09:57:46;2.97;;;1.83;;
9508;SDS011;4792;50.088;8.122;2023-04-24T10:00:17;2.00;;;1.80;;
9508;SDS011;4792;50.088;8.122;2023-04-24T10:02:49;1.70;;;1.60;;
9508;SDS011;4792;50.088;8.122;2023-04-24T10:05:18;2.73;;;1.70;;
9508;SDS011;4792;50.088;8.122;2023-04-24T10:07:48;2.10;;;1.57;;
9508;SDS011;4792;50.088;8.122;2023-04-24T10:10:18;2.20;;;2.00;;
9508;SDS011;4792;50.088;8.122;2023-04-24T10:12:46;2.70;;;1.80;;
9508;SDS011;4792;50.088;8.122;2023-04-24T10:15:14;3.20;;;1.83;;
9508;SDS011;4792;50.088;8.122;2023-04-24T10:17:47;2.13;;;1.93;;
9508;SDS011;4792;50.088;8.122;2023-04-24T10:20:19;2.33;;;2.00;;
9508;SDS011;4792;50.088;8.122;2023-04-24T10:22:50;1.80;;;1.70;;
9508;SDS011;4792;50.088;8.122;2023-04-24T10:25:19;2.10;;;1.90;;
9508;SDS011;4792;50.088;8.122;2023-04-24T10:27:48;1.93;;;1.80;;
9508;SDS011;4792;50.088;8.122;2023-04-24T10:30:17;2.40;;;2.20;;
9508;SDS011;4792;50.088;8.122;2023-04-24T10:32:46;3.10;;;2.13;;
9508;SDS011;4792;50.088;8.122;2023-04-24T10:35:14;3.97;;;2.37;;
9508;SDS011;4792;50.088;8.122;2023-04-24T10:37:43;2.17;;;1.80;;
9508;SDS011;4792;50.088;8.122;2023-04-24T10:40:17;2.30;;;2.10;;
9508;SDS011;4792;50.088;8.122;2023-04-24T10:42:47;3.03;;;1.60;;
9508;SDS011;4792;50.088;8.122;2023-04-24T10:45:18;1.70;;;1.60;;
9508;SDS011;4792;50.088;8.122;2023-04-24T10:47:51;2.53;;;1.57;;
9508;SDS011;4792;50.088;8.122;2023-04-24T10:50:20;1.80;;;1.70;;
9508;SDS011;4792;50.088;8.122;2023-04-24T10:52:48;2.30;;;2.10;;
9508;SDS011;4792;50.088;8.122;2023-04-24T10:55:29;2.03;;;1.83;;
9508;SDS011;4792;50.088;8.122;2023-04-24T10:58:06;2.37;;;2.17;;
9508;SDS011;4792;50.088;8.122;2023-04-24T11:00:36;2.77;;;2.30;;
9508;SDS011;4792;50.088;8.122;2023-04-24T11:03:04;2.23;;;2.03;;
9508;SDS011;4792;50.088;8.122;2023-04-24T11:05:49;3.87;;;2.97;;
9508;SDS011;4792;50.088;8.122;2023-04-24T11:08:22;2.57;;;2.10;;
9508;SDS011;4792;50.088;8.122;2023-04-24T11:10:57;2.40;;;2.20;;
9508;SDS011;4792;50.088;8.122;2023-04-24T11:13:28;2.93;;;2.30;;
9508;SDS011;4792;50.088;8.122;2023-04-24T11:16:34;3.00;;;2.30;;
9508;SDS011;4792;50.088;8.122;2023-04-24T11:19:05;3.23;;;2.20;;
9508;SDS011;4792;50.088;8.122;2023-04-24T11:21:40;2.50;;;2.20;;
9508;SDS011;4792;50.088;8.122;2023-04-24T11:24:23;2.80;;;2.40;;
9508;SDS011;4792;50.088;8.122;2023-04-24T11:27:11;3.07;;;2.13;;
9508;SDS011;4792;50.088;8.122;2023-04-24T11:29:41;4.57;;;3.50;;
9508;SDS011;4792;50.088;8.122;2023-04-24T11:32:14;3.53;;;2.90;;
9508;SDS011;4792;50.088;8.122;2023-04-24T11:34:48;3.07;;;2.77;;
9508;SDS011;4792;50.088;8.122;2023-04-24T11:37:17;4.97;;;3.23;;
9508;SDS011;4792;50.088;8.122;2023-04-24T11:39:45;3.80;;;3.40;;
9508;SDS011;4792;50.088;8.122;2023-04-24T11:42:15;5.80;;;4.23;;
9508;SDS011;4792;50.088;8.122;2023-04-24T11:44:43;4.80;;;3.60;;
9508;SDS011;4792;50.088;8.122;2023-04-24T11:47:13;3.67;;;3.27;;
9508;SDS011;4792;50.088;8.122;2023-04-24T11:49:41;8.10;;;3.57;;
9508;SDS011;4792;50.088;8.122;2023-04-24T11:52:09;4.70;;;3.60;;
9508;SDS011;4792;50.088;8.122;2023-04-24T11:54:38;6.27;;;4.03;;
9508;SDS011;4792;50.088;8.122;2023-04-24T11:57:05;8.37;;;4.67;;
9508;SDS011;4792;50.088;8.122;2023-04-24T11:59:37;5.47;;;3.83;;
9508;SDS011;4792;50.088;8.122;2023-04-24T12:02:05;6.30;;;4.50;;
9508;SDS011;4792;50.088;8.122;2023-04-24T12:04:39;7.60;;;4.73;;
9508;SDS011;4792;50.088;8.122;2023-04-24T12:07:08;15.47;;;8.43;;
9508;SDS011;4792;50.088;8.122;2023-04-24T12:09:43;5.30;;;3.77;;
9508;SDS011;4792;50.088;8.122;2023-04-24T12:12:13;4.30;;;3.90;;
9508;SDS011;4792;50.088;8.122;2023-04-24T12:14:48;6.03;;;4.43;;
9508;SDS011;4792;50.088;8.122;2023-04-24T12:17:16;5.37;;;3.73;;
9508;SDS011;4792;50.088;8.122;2023-04-24T12:19:45;6.67;;;4.13;;
9508;SDS011;4792;50.088;8.122;2023-04-24T12:22:13;4.63;;;3.67;;
9508;SDS011;4792;50.088;8.122;2023-04-24T12:24:57;8.77;;;4.53;;
9508;SDS011;4792;50.088;8.122;2023-04-24T12:27:27;6.90;;;4.33;;
9508;SDS011;4792;50.088;8.122;2023-04-24T12:29:58;5.43;;;4.00;;
9508;SDS011;4792;50.088;8.122;2023-04-24T12:32:27;7.40;;;3.87;;
9508;SDS011;4792;50.088;8.122;2023-04-24T12:34:55;4.57;;;3.80;;
9508;SDS011;4792;50.088;8.122;2023-04-24T12:37:23;6.77;;;4.10;;
9508;SDS011;4792;50.088;8.122;2023-04-24T12:39:58;6.87;;;4.37;;
9508;SDS011;4792;50.088;8.122;2023-04-24T12:42:27;6.20;;;4.30;;
9508;SDS011;4792;50.088;8.122;2023-04-24T12:44:56;6.00;;;3.87;;
9508;SDS011;4792;50.088;8.122;2023-04-24T12:47:26;8.07;;;4.10;;
9508;SDS011;4792;50.088;8.122;2023-04-24T12:49:54;7.13;;;3.57;;
9508;SDS011;4792;50.088;8.122;2023-04-24T12:52:22;6.63;;;3.60;;
9508;SDS011;4792;50.088;8.122;2023-04-24T12:54:52;5.30;;;3.60;;
9508;SDS011;4792;50.088;8.122;2023-04-24T12:57:20;4.93;;;4.13;;
9508;SDS011;4792;50.088;8.122;2023-04-24T12:59:48;6.13;;;3.90;;
9508;SDS011;4792;50.088;8.122;2023-04-24T13:02:16;5.27;;;3.80;;
9508;SDS011;4792;50.088;8.122;2023-04-24T13:04:46;5.60;;;3.90;;
9508;SDS011;4792;50.088;8.122;2023-04-24T13:07:14;5.33;;;3.77;;
9508;SDS011;4792;50.088;8.122;2023-04-24T13:09:43;7.03;;;3.67;;
9508;SDS011;4792;50.088;8.122;2023-04-24T13:12:11;6.23;;;3.30;;
9508;SDS011;4792;50.088;8.122;2023-04-24T13:14:39;3.93;;;3.43;;
9508;SDS011;4792;50.088;8.122;2023-04-24T13:17:07;5.90;;;3.73;;
9508;SDS011;4792;50.088;8.122;2023-04-24T13:19:35;6.30;;;3.50;;
9508;SDS011;4792;50.088;8.122;2023-04-24T13:22:06;5.53;;;3.43;;
9508;SDS011;4792;50.088;8.122;2023-04-24T13:24:34;8.30;;;3.37;;
9508;SDS011;4792;50.088;8.122;2023-04-24T13:27:04;8.13;;;3.73;;
9508;SDS011;4792;50.088;8.122;2023-04-24T13:29:32;6.33;;;3.50;;
9508;SDS011;4792;50.088;8.122;2023-04-24T13:32:00;4.87;;;3.10;;
9508;SDS011;4792;50.088;8.122;2023-04-24T13:34:28;4.93;;;3.43;;
9508;SDS011;4792;50.088;8.122;2023-04-24T13:36:56;6.17;;;3.60;;
9508;SDS011;4792;50.088;8.122;2023-04-24T13:39:26;7.60;;;3.70;;
9508;SDS011;4792;50.088;8.122;2023-04-24T13:41:54;5.43;;;3.90;;
9508;SDS011;4792;50.088;8.122;2023-04-24T13:44:22;9.60;;;4.10;;
9508;SDS011;4792;50.088;8.122;2023-04-24T13:46:51;5.33;;;3.27;;
9508;SDS011;4792;50.088;8.122;2023-04-24T13:49:23;8.20;;;3.90;;
9508;SDS011;4792;50.088;8.122;2023-04-24T13:51:52;7.93;;;4.13;;
9508;SDS011;4792;50.088;8.122;2023-04-24T13:54:20;5.03;;;3.67;;
9508;SDS011;4792;50.088;8.122;2023-04-24T13:56:51;5.63;;;3.60;;
9508;SDS011;4792;50.088;8.122;2023-04-24T13:59:19;4.47;;;3.33;;
9508;SDS011;4792;50.088;8.122;2023-04-24T14:01:47;5.80;;;3.70;;
9508;SDS011;4792;50.088;8.122;2023-04-24T14:04:15;5.97;;;4.00;;
9508;SDS011;4792;50.088;8.122;2023-04-24T14:06:43;7.30;;;3.60;;
9508;SDS011;4792;50.088;8.122;2023-04-24T14:09:11;4.53;;;3.20;;
9508;SDS011;4792;50.088;8.122;2023-04-24T14:11:40;6.83;;;3.50;;
9508;SDS011;4792;50.088;8.122;2023-04-24T14:14:09;3.23;;;2.90;;
9508;SDS011;4792;50.088;8.122;2023-04-24T14:16:37;4.63;;;3.23;;
9508;SDS011;4792;50.088;8.122;2023-04-24T14:19:05;5.67;;;3.30;;
9508;SDS011;4792;50.088;8.122;2023-04-24T14:21:33;7.80;;;3.70;;
9508;SDS011;4792;50.088;8.122;2023-04-24T14:24:01;4.80;;;3.10;;
9508;SDS011;4792;50.088;8.122;2023-04-24T14:26:29;3.43;;;3.13;;
9508;SDS011;4792;50.088;8.122;2023-04-24T14:28:57;4.17;;;3.10;;
9508;SDS011;4792;50.088;8.122;2023-04-24T14:31:41;7.53;;;3.10;;
9508;SDS011;4792;50.088;8.122;2023-04-24T14:34:09;6.03;;;3.30;;
9508;SDS011;4792;50.088;8.122;2023-04-24T14:36:36;7.10;;;4.00;;
9508;SDS011;4792;50.088;8.122;2023-04-24T14:39:05;4.00;;;3.07;;
9508;SDS011;4792;50.088;8.122;2023-04-24T14:41:33;7.60;;;3.80;;
9508;SDS011;4792;50.088;8.122;2023-04-24T14:44:02;6.27;;;3.30;;
9508;SDS011;4792;50.088;8.122;2023-04-24T14:46:31;5.83;;;3.67;;
9508;SDS011;4792;50.088;8.122;2023-04-24T14:49:00;4.73;;;3.30;;
9508;SDS011;4792;50.088;8.122;2023-04-24T14:51:28;6.33;;;3.47;;
9508;SDS011;4792;50.088;8.122;2023-04-24T14:53:56;13.63;;;3.97;;
9508;SDS011;4792;50.088;8.122;2023-04-24T14:56:24;4.90;;;3.37;;
9508;SDS011;4792;50.088;8.122;2023-04-24T14:58:52;7.83;;;3.77;;
9508;SDS011;4792;50.088;8.122;2023-04-24T15:01:20;5.97;;;3.50;;
9508;SDS011;4792;50.088;8.122;2023-04-24T15:03:48;5.07;;;3.10;;
9508;SDS011;4792;50.088;8.122;2023-04-24T15:06:18;3.97;;;3.50;;
9508;SDS011;4792;50.088;8.122;2023-04-24T15:08:46;6.07;;;3.50;;
9508;SDS011;4792;50.088;8.122;2023-04-24T15:11:16;3.77;;;3.37;;
9508;SDS011;4792;50.088;8.122;2023-04-24T15:13:44;6.83;;;3.43;;
9508;SDS011;4792;50.088;8.122;2023-04-24T15:16:13;8.30;;;3.10;;
9508;SDS011;4792;50.088;8.122;2023-04-24T15:18:40;5.83;;;3.43;;
9508;SDS011;4792;50.088;8.122;2023-04-24T15:21:08;5.27;;;3.60;;
9508;SDS011;4792;50.088;8.122;2023-04-24T15:23:37;6.10;;;4.00;;
9508;SDS011;4792;50.088;8.122;2023-04-24T15:26:05;6.77;;;3.90;;